Latest Weather Observations for Liawenee

IDT60801

Issued at 1:32 pm EST Sunday 25 June 2017 (issued every 30 minutes, with the page automatically refreshed every 10 minutes)

About weather observations | Map of weather stations | Latest weather observations for TAS | Other Formats
Station Details ID: 096033 Name: LIAWENEE Lat: -41.90 Lon: 146.67 Height: 1057.0 m
Data from the previous 72 hours. | See also: Recent months at Liawenee
Date/Time
EST
Temp
°C
App
Temp
°C
Dew
Point
°C
Rel
Hum
%
Delta-T
°C
Wind Press
QNH
hPa
Press
MSL
hPa
Rain since
9am
mm
Dir  Spd
km/h
Gust
km/h
Spd
kts
Gust
kts
25/01:30pm 2.7 -4.6 2.4 98 0.1 W 30 41 16 22 1002.3 1004.0 0.0
25/01:00pm 3.4 -4.2 2.7 95 0.3 WNW 32 50 17 27 1001.8 1003.4 0.0
25/12:41pm 3.6 -3.2 2.9 95 0.3 WNW 28 46 15 25 1002.1 1003.8 0.0
25/12:30pm 3.1 -4.2 2.2 94 0.4 WNW 30 44 16 24 1002.3 1004.0 0.0
25/12:21pm 3.6 -3.3 2.4 92 0.5 WNW 28 50 15 27 1002.3 1004.0 0.0
25/12:00pm 4.2 -2.0 2.4 88 0.8 NW 24 41 13 22 1002.7 1004.4 0.0
25/11:30am 2.8 -3.8 1.8 93 0.4 WNW 26 43 14 23 1003.1 1004.8 0.0
25/11:00am 2.8 -3.1 1.9 94 0.4 WNW 22 33 12 18 1003.6 1005.3 0.0
25/10:30am 3.5 -3.4 2.3 92 0.5 WNW 28 44 15 24 1003.9 1005.6 0.0
25/10:00am 3.0 -4.0 1.7 91 0.5 WNW 28 44 15 24 1003.8 1005.5 0.0
25/09:33am 3.0 -4.5 1.5 90 0.6 WNW 30 50 16 27 1003.9 1005.6 0.0
25/09:30am 3.0 -4.5 1.5 90 0.6 WNW 30 43 16 23 1004.0 1005.7 0.0
25/09:00am 1.9 -6.2 1.0 94 0.4 WNW 33 46 18 25 1004.0 1005.7 0.2
25/08:30am 1.6 -6.5 0.9 95 0.3 WNW 33 54 18 29 1004.2 1005.9 0.2
25/08:00am 1.6 -6.9 0.9 95 0.3 WNW 35 54 19 29 1004.1 1005.8 0.2
25/07:35am 1.5 -5.6 1.2 98 0.1 WNW 28 52 15 28 1004.2 1005.9 0.2
25/07:30am 1.4 -5.3 1.3 99 0.0 WNW 26 43 14 23 1004.2 1005.9 0.2
25/07:00am 1.1 -4.6 0.7 97 0.2 WNW 20 33 11 18 1004.5 1006.3 0.2
25/06:30am 1.2 -4.8 0.9 98 0.1 WNW 22 35 12 19 1004.2 1005.9 0.2
25/06:00am 1.3 -5.9 0.7 96 0.2 WNW 28 39 15 21 1004.3 1006.1 0.2
25/05:30am 1.2 -5.6 1.1 99 0.0 WNW 26 37 14 20 1004.3 1006.1 0.2
25/05:00am 1.6 -5.1 1.3 98 0.1 WNW 26 44 14 24 1004.4 1006.2 0.2
25/04:30am 1.2 -5.2 1.1 99 0.0 NW 24 39 13 21 1004.9 1006.6 0.2
25/04:00am 1.1 -4.9 0.8 98 0.1 WNW 22 32 12 17 1005.2 1007.0 0.2
25/03:30am 1.0 -5.4 0.9 99 0.0 WNW 24 35 13 19 1005.5 1007.3 0.2
25/03:00am 1.0 -5.4 0.9 99 0.0 WNW 24 35 13 19 1006.1 1007.9 0.2
25/02:30am 1.0 -5.4 0.9 99 0.0 WNW 24 35 13 19 1006.3 1008.1 0.2
25/02:00am 0.7 -5.0 0.6 99 0.0 WNW 20 35 11 19 1006.5 1008.3 0.2
25/01:30am 0.7 -6.1 0.6 99 0.0 WNW 26 35 14 19 1006.7 1008.5 0.2
25/01:00am 0.4 -5.3 0.3 99 0.0 WNW 20 32 11 17 1006.8 1008.6 0.2
25/12:30am 0.5 -5.0 0.4 99 0.0 WNW 19 33 10 18 1007.2 1009.0 0.2
25/12:00am 0.4 -5.7 0.3 99 0.0 WNW 22 39 12 21 1007.5 1009.4 0.2
 
Date/Time
EST
Temp
°C
App
Temp
°C
Dew
Point
°C
Rel
Hum
%
Delta-T
°C
Wind Press
QNH
hPa
Press
MSL
hPa
Rain since
9am
mm
Dir  Spd
km/h
Gust
km/h
Spd
kts
Gust
kts
24/11:30pm 0.3 -5.3 0.2 99 0.0 WNW 19 26 10 14 1007.9 1009.7 0.2
24/11:00pm 0.2 -5.0 0.1 99 0.0 WNW 17 24 9 13 1008.1 1009.9 0.2
24/10:30pm -0.1 -4.6 -0.2 99 0.0 WNW 13 22 7 12 1008.3 1010.2 0.2
24/10:00pm -0.3 -4.8 -0.4 99 0.0 WNW 13 22 7 12 1008.6 1010.5 0.2
24/09:30pm -0.5 -5.4 -0.6 99 0.0 WNW 15 20 8 11 1008.8 1010.6 0.2
24/09:00pm -0.6 -5.5 -0.7 99 0.0 WNW 15 19 8 10 1008.9 1010.7 0.2
24/08:30pm -0.8 -5.4 -0.9 99 0.0 WNW 13 20 7 11 1009.0 1010.8 0.2
24/08:00pm -0.6 -5.9 -0.7 99 0.0 WNW 17 22 9 12 1009.1 1011.0 0.2
24/07:30pm -0.8 -6.1 -0.9 99 0.0 W 17 24 9 13 1009.1 1011.0 0.2
24/07:00pm -0.8 -6.1 -0.9 99 0.0 WNW 17 20 9 11 1009.2 1011.1 0.2
24/06:30pm -0.6 -5.9 -0.7 99 0.0 WNW 17 22 9 12 1009.0 1010.8 0.2
24/06:00pm -0.5 -5.4 -0.6 99 0.0 W 15 20 8 11 1009.0 1010.8 0.2
24/05:30pm -0.6 -5.2 -0.7 99 0.0 W 13 19 7 10 1009.2 1011.1 0.2
24/05:00pm -0.3 -5.2 -0.6 98 0.1 W 15 20 8 11 1009.3 1011.2 0.2
24/04:30pm 0.2 -5.5 -0.4 96 0.2 W 19 24 10 13 1009.3 1011.2 0.2
24/04:00pm 1.3 -4.9 -0.5 88 0.7 WSW 22 32 12 17 1009.0 1010.8 0.2
24/03:30pm 1.7 -4.1 -0.4 86 0.8 WSW 20 30 11 16 1008.9 1010.7 0.2
24/03:00pm 1.8 -4.0 0.0 88 0.7 W 20 33 11 18 1008.6 1010.5 0.2
24/02:30pm 1.6 -4.6 -0.5 86 0.8 WSW 22 32 12 17 1008.5 1010.4 0.2
24/02:00pm 1.9 -4.4 -0.7 83 1.0 WSW 22 30 12 16 1008.5 1010.4 0.2
24/01:30pm 1.5 -4.3 -0.3 88 0.7 WSW 20 30 11 16 1008.5 1010.4 0.2
24/01:00pm 1.1 -5.5 -0.7 88 0.7 WSW 24 30 13 16 1008.5 1010.4 0.2
24/12:30pm 1.4 -6.0 -0.8 85 0.8 WSW 28 39 15 21 1008.8 1010.6 0.2
24/12:00pm 1.2 -5.8 -0.4 89 0.6 WSW 26 37 14 20 1009.0 1010.8 0.2
24/11:30am 0.3 -6.7 -0.7 93 0.4 WSW 26 35 14 19 1009.1 1011.0 0.2
24/11:00am -0.4 -7.9 -1.4 93 0.4 WSW 28 41 15 22 1009.2 1011.1 0.2
24/10:30am -0.4 -6.4 -1.8 90 0.5 WSW 20 35 11 19 1009.3 1011.2 0.2
24/10:00am -1.4 -6.4 -1.5 99 0.0 WSW 15 20 8 11 1009.5 1011.4 0.0
24/09:30am -1.0 -7.4 -1.4 97 0.1 WSW 22 30 12 16 1008.9 1010.7 0.0
24/09:00am -1.3 -9.3 -2.1 94 0.2 WSW 30 41 16 22 1008.6 1010.5 3.2
24/08:30am -1.9 -8.4 -2.3 97 0.1 WSW 22 33 12 18 1008.2 1010.0 3.0
24/08:00am -2.0 -9.3 -2.6 96 0.1 WSW 26 35 14 19 1007.7 1009.5 3.0
24/07:30am -2.4 -9.7 -2.8 97 0.0 SW 26 37 14 20 1007.5 1009.4 3.0
24/07:00am -2.8 -10.9 -3.2 97 0.0 WSW 30 41 16 22 1007.0 1008.8 3.0
24/06:30am -2.6 -10.4 -3.4 94 0.2 WSW 28 37 15 20 1006.8 1008.6 3.0
24/06:00am -2.5 -10.2 -2.6 99 -0.1 WSW 28 37 15 20 1006.4 1008.2 3.0
24/05:30am -2.3 -10.3 -2.6 98 0.0 WSW 30 39 16 21 1006.2 1008.0 3.0
24/05:00am -2.8 -9.4 -3.2 97 0.0 SW 22 30 12 16 1006.3 1008.1 3.0
24/04:30am -3.0 -10.0 -3.4 97 0.0 SW 24 28 13 15 1006.0 1007.8 3.0
24/04:00am -3.3 -11.1 -3.6 98 0.0 SW 28 35 15 19 1005.9 1007.7 3.0
24/03:30am -3.1 -10.4 -3.2 99 -0.1 SW 26 37 14 20 1006.1 1007.9 3.0
24/03:00am -3.4 -9.7 -3.7 98 0.0 SW 20 26 11 14 1006.0 1007.8 3.0
24/02:30am -3.5 -10.2 -3.8 98 -0.1 SW 22 32 12 17 1005.9 1007.7 3.0
24/02:00am -3.0 -9.6 -3.1 99 -0.1 SW 22 28 12 15 1005.8 1007.5 3.0
24/01:30am -3.5 -11.3 -3.8 98 -0.1 SW 28 37 15 20 1005.5 1007.3 3.0
24/01:10am -3.2 -11.3 -3.3 99 -0.1 SW 30 50 16 27 1005.2 1007.0 3.0
24/01:00am -3.0 -10.7 -3.3 98 0.0 SW 28 39 15 21 1005.0 1006.7 3.0
24/12:30am -3.1 -12.6 -3.8 95 0.1 SW 37 46 20 25 1005.0 1006.7 3.0
24/12:14am -2.9 -10.6 -3.0 99 -0.1 SW 28 52 15 28 1005.0 1006.7 3.0
24/12:00am -2.5 -11.5 -2.8 98 0.0 SW 35 48 19 26 1004.8 1006.5 3.0
 
Date/Time
EST
Temp
°C
App
Temp
°C
Dew
Point
°C
Rel
Hum
%
Delta-T
°C
Wind Press
QNH
hPa
Press
MSL
hPa
Rain since
9am
mm
Dir  Spd
km/h
Gust
km/h
Spd
kts
Gust
kts
23/11:50pm -2.6 -10.3 -2.7 99 -0.1 SW 28 48 15 26 1004.5 1006.3 3.0
23/11:30pm -2.4 -10.0 -2.5 99 -0.1 SW 28 41 15 22 1004.2 1005.9 3.0
23/11:27pm -2.4 -10.0 -2.5 99 -0.1 SW 28 46 15 25 1004.2 1005.9 3.0
23/11:00pm -2.5 -11.1 -2.6 99 -0.1 WSW 33 44 18 24 1004.1 1005.8 2.8
23/10:45pm -2.1 -9.7 -2.2 99 -0.1 WSW 28 46 15 25 1003.9 1005.6 2.8
23/10:30pm -2.0 -9.2 -2.1 99 -0.1 WSW 26 33 14 18 1003.9 1005.6 2.8
23/10:00pm -2.3 -9.9 -2.4 99 -0.1 WSW 28 39 15 21 1003.3 1005.0 2.8
23/09:30pm -2.5 -11.5 -2.8 98 0.0 WSW 35 48 19 26 1002.6 1004.2 2.8
23/09:14pm -2.3 -10.9 -2.8 96 0.1 WSW 33 52 18 28 1002.6 1004.2 2.8
23/09:00pm -2.4 -11.0 -2.9 96 0.1 WSW 33 46 18 25 1002.7 1004.4 2.8
23/08:30pm -2.0 -10.0 -2.4 97 0.0 WSW 30 41 16 22 1002.6 1004.2 2.8
23/08:00pm -1.8 -10.2 -2.4 96 0.1 WSW 32 44 17 24 1002.6 1004.2 2.8
23/07:49pm -1.5 -10.1 -2.5 93 0.3 WSW 33 59 18 32 1002.4 1004.1 2.8
23/07:30pm -0.9 -8.7 -1.0 99 0.0 WSW 30 39 16 21 1002.9 1004.6 2.8
23/07:01pm -0.2 -7.9 -0.3 99 0.0 WSW 30 48 16 26 1002.3 1004.0 2.6
23/07:00pm -0.2 -8.3 -0.3 99 0.0 WSW 32 48 17 26 1002.3 1004.0 2.6
23/06:50pm 0.0 -7.3 -0.1 99 0.0 WSW 28 46 15 25 1002.3 1004.0 2.6
23/06:30pm 0.2 -7.1 0.1 99 0.0 SW 28 39 15 21 1001.9 1003.6 2.6
23/06:00pm 1.1 -6.8 1.0 99 0.0 WSW 32 44 17 24 1001.4 1003.1 2.4
23/05:30pm 2.0 -4.2 1.9 99 0.0 W 24 35 13 19 1000.8 1002.4 2.4
23/05:00pm 2.1 -4.5 2.0 99 0.0 W 26 37 14 20 1000.4 1002.1 2.4
23/04:30pm 2.4 -4.5 2.3 99 0.0 W 28 44 15 24 1000.7 1002.3 2.4
23/04:09pm 2.4 -4.5 2.3 99 0.0 WNW 28 46 15 25 1001.1 1002.8 2.2
23/04:00pm 2.5 -5.2 2.4 99 0.0 WNW 32 46 17 25 1001.4 1003.1 2.2
23/03:33pm 3.2 -3.6 3.1 99 0.0 WNW 28 46 15 25 1001.4 1003.1 1.4
23/03:30pm 3.3 -3.9 3.2 99 0.0 WNW 30 46 16 25 1001.4 1003.1 1.4
23/03:00pm 4.4 -3.0 4.0 97 0.2 WNW 32 52 17 28 1001.2 1002.9 0.6
23/02:30pm 4.6 -2.1 3.6 93 0.4 WNW 28 46 15 25 1001.3 1003.0 0.6
23/02:00pm 4.4 -1.5 4.1 98 0.1 WNW 24 37 13 20 1001.7 1003.3 0.6
23/01:30pm 4.7 -3.4 3.5 92 0.5 WNW 35 61 19 33 1002.3 1004.0 0.6
23/01:03pm 4.4 -2.2 4.3 99 0.0 WNW 28 46 15 25 1003.1 1004.8 0.4
23/01:00pm 4.3 -2.3 4.2 99 0.0 WNW 28 43 15 23 1003.2 1004.9 0.4
23/12:30pm 5.6 -1.1 3.9 89 0.8 WNW 28 46 15 25 1003.6 1005.3 0.2
23/12:00pm 4.5 -2.8 4.4 99 0.0 WNW 32 52 17 28 1004.8 1006.5 0.0
23/11:51am 4.8 -1.7 4.7 99 0.0 WNW 28 54 15 29 1004.8 1006.5 0.0
23/11:30am 4.6 -1.2 4.3 98 0.1 NW 24 43 13 23 1005.4 1007.2 0.0
23/11:08am 4.6 -2.0 4.2 97 0.2 WNW 28 46 15 25 1006.2 1008.0 0.0
23/11:00am 4.4 -0.7 4.3 99 0.0 NW 20 32 11 17 1006.3 1008.1 0.0
23/10:30am 4.3 -1.9 4.2 99 0.0 NW 26 41 14 22 1006.9 1008.7 0.0
23/10:00am 4.1 -1.8 4.0 99 0.0 NW 24 41 13 22 1007.5 1009.4 0.0
23/09:30am 3.7 -3.0 3.6 99 0.0 NW 28 44 15 24 1007.8 1009.6 0.0
23/09:00am 3.8 -1.4 3.7 99 0.0 NW 20 35 11 19 1008.4 1010.3 0.2
23/08:30am 3.5 -2.1 3.4 99 0.0 NW 22 35 12 19 1008.5 1010.4 0.2
23/08:00am 3.5 -3.4 2.8 95 0.3 WNW 28 41 15 22 1008.8 1010.6 0.2
23/07:30am 3.3 -3.6 2.4 94 0.4 WNW 28 41 15 22 1009.0 1010.8 0.2
23/07:00am 4.0 -2.8 3.1 94 0.4 WNW 28 44 15 24 1009.5 1011.4 0.2
23/06:30am 4.3 -0.6 3.9 97 0.2 NW 19 33 10 18 1009.3 1011.2 0.2
23/06:00am 4.6 -0.8 4.5 99 0.0 WNW 22 35 12 19 1009.4 1011.3 0.2
23/05:30am 4.8 -0.9 4.7 99 0.0 WNW 24 43 13 23 1009.5 1011.4 0.2
23/05:00am 4.9 -0.4 4.8 99 0.0 NW 22 41 12 22 1009.8 1011.6 0.2
23/04:30am 4.8 0.0 4.7 99 0.0 NW 19 37 10 20 1010.4 1012.3 0.0
23/04:00am 4.5 -0.3 4.4 99 0.0 NW 19 30 10 16 1011.1 1013.0 0.0
23/03:30am 3.7 -0.9 3.6 99 0.0 NW 17 28 9 15 1011.6 1013.6 0.0
23/03:00am 3.6 -1.5 3.0 96 0.3 NW 19 35 10 19 1012.2 1014.1 0.0
23/02:30am 2.9 -2.0 2.3 96 0.3 NW 17 26 9 14 1012.7 1014.7 0.0
23/02:00am 2.8 -2.6 2.2 96 0.3 WNW 20 32 11 17 1013.0 1014.9 0.0
23/01:30am 2.9 -3.7 2.3 96 0.3 WNW 26 35 14 19 1013.4 1015.4 0.0
23/01:00am 2.9 -3.2 2.5 97 0.2 WNW 24 35 13 19 1013.6 1015.6 0.0
23/12:30am 2.9 -3.2 2.6 98 0.1 WNW 24 37 13 20 1014.0 1016.0 0.0
23/12:00am 2.9 -2.4 2.8 99 0.0 WNW 20 33 11 18 1014.4 1016.4 0.0
 
Date/Time
EST
Temp
°C
App
Temp
°C
Dew
Point
°C
Rel
Hum
%
Delta-T
°C
Wind Press
QNH
hPa
Press
MSL
hPa
Rain since
9am
mm
Dir  Spd
km/h
Gust
km/h
Spd
kts
Gust
kts
22/11:30pm 2.7 -2.1 2.6 99 0.0 WNW 17 28 9 15 1015.0 1017.0 0.0
22/11:00pm 2.5 -1.2 2.2 98 0.1 WNW 11 22 6 12 1015.3 1017.3 0.0
22/10:30pm 2.3 -2.6 2.0 98 0.1 W 17 24 9 13 1015.7 1017.8 0.0
22/10:00pm 2.4 -3.1 2.1 98 0.1 WNW 20 32 11 17 1016.2 1018.2 0.0
22/09:30pm 2.3 -3.6 2.0 98 0.1 WNW 22 35 12 19 1016.4 1018.5 0.0
22/09:00pm 2.1 -3.4 1.8 98 0.1 WNW 20 39 11 21 1016.5 1018.6 0.0
22/08:30pm 2.1 -3.8 1.8 98 0.1 WNW 22 35 12 19 1016.7 1018.8 0.0
22/08:00pm 1.6 -4.0 0.9 95 0.3 WNW 20 32 11 17 1016.8 1018.9 0.0
22/07:30pm 1.6 -3.5 1.0 96 0.2 WNW 17 28 9 15 1017.2 1019.3 0.0
22/07:00pm 1.7 -1.8 1.0 95 0.3 WNW 9 17 5 9 1017.4 1019.5 0.0
22/06:30pm 1.3 -2.7 0.6 95 0.3 W 11 20 6 11 1017.4 1019.5 0.0
22/06:00pm 1.7 -2.6 1.0 95 0.3 WNW 13 20 7 11 1017.8 1019.9 0.0
22/05:30pm 1.5 -2.1 0.6 94 0.4 NW 9 17 5 9 1018.3 1020.4 0.0
22/05:00pm 1.3 -3.9 0.3 93 0.4 WNW 17 24 9 13 1018.6 1020.7 0.0
22/04:30pm 1.2 -3.6 -0.1 91 0.5 W 15 26 8 14 1018.7 1020.8 0.0
22/04:00pm 1.3 -3.6 -0.3 89 0.6 WNW 15 26 8 14 1019.0 1021.1 0.0
22/03:30pm 1.7 -4.0 -0.5 85 0.9 W 19 28 10 15 1019.3 1021.4 0.0
22/03:00pm 2.8 -2.0 -0.1 81 1.2 WNW 15 24 8 13 1019.3 1021.4 0.0
22/02:30pm 3.1 -2.1 0.0 80 1.2 WNW 17 28 9 15 1019.4 1021.5 0.0
22/02:00pm 2.7 -2.6 -0.7 78 1.3 WNW 17 24 9 13 1019.6 1021.8 0.0

Other Formats:

Comma delimited format used in spreadsheet applications
http://www.bom.gov.au/fwo/IDT60801/IDT60801.95959.axf

JavaScript Object Notation format (JSON) in row-major order
http://www.bom.gov.au/fwo/IDT60801/IDT60801.95959.json